Time;durP1;ratioP1;P1;durP2;ratioP2;P2;SDS_P1;SDS_P2;PMS_P1;PMS_P2;Temp;Humidity;BMP_temperature;BMP_pressure;BME280_temperature;BME280_humidity;BME280_pressure;Samples;Min_cycle;Max_cycle;Signal;HPM_P1;HPM_P2
2021/01/05 00:01:24;;;;;;;4.63;2.33;;;20.00;36.90;;;;;;5068048;28;20042;-72
2021/01/05 00:03:56;;;;;;;2.28;1.20;;;20.00;36.90;;;;;;5055253;28;20061;-72
2021/01/05 00:06:22;;;;;;;8.55;5.65;;;20.00;36.80;;;;;;5038465;28;20078;-72
2021/01/05 00:08:47;;;;;;;7.18;3.95;;;19.90;36.80;;;;;;5051033;28;20021;-72
2021/01/05 00:11:13;;;;;;;2.45;1.27;;;19.90;36.80;;;;;;5075352;28;20021;-72
2021/01/05 00:13:38;;;;;;;4.10;1.05;;;19.90;36.80;;;;;;5075274;28;20020;-72
2021/01/05 00:16:04;;;;;;;2.03;1.48;;;19.90;36.80;;;;;;5075203;28;20025;-72
2021/01/05 00:18:30;;;;;;;1.40;1.10;;;19.90;36.80;;;;;;5070465;28;20487;-72
2021/01/05 00:20:55;;;;;;;9.52;6.13;;;19.90;36.80;;;;;;5062502;28;20033;-72
2021/01/05 00:23:21;;;;;;;3.88;1.98;;;19.90;36.80;;;;;;5070514;28;20029;-74
2021/01/05 00:25:46;;;;;;;1.33;1.00;;;19.90;36.80;;;;;;5071622;28;20102;-74
2021/01/05 00:28:12;;;;;;;1.67;1.33;;;19.90;36.80;;;;;;5083182;28;20044;-74
2021/01/05 00:30:38;;;;;;;2.80;1.45;;;19.90;36.80;;;;;;5062498;28;20031;-74
2021/01/05 00:33:04;;;;;;;3.58;1.38;;;19.90;36.80;;;;;;5071761;28;20020;-74
2021/01/05 00:35:31;;;;;;;2.60;2.10;;;19.80;36.80;;;;;;5083191;28;20085;-74
2021/01/05 00:37:57;;;;;;;2.38;1.52;;;19.80;36.80;;;;;;5059653;28;20040;-73
2021/01/05 00:40:24;;;;;;;9.48;2.58;;;19.80;36.60;;;;;;5074754;28;20108;-72
2021/01/05 00:42:49;;;;;;;4.85;2.17;;;19.80;36.60;;;;;;5057504;28;20123;-72
2021/01/05 00:45:37;;;;;;;2.30;1.58;;;19.80;36.60;;;;;;5056875;28;20502;-72
2021/01/05 00:48:03;;;;;;;2.75;1.40;;;19.80;36.70;;;;;;5053598;28;20511;-72
2021/01/05 00:50:29;;;;;;;1.70;1.42;;;19.80;36.70;;;;;;5074513;28;20366;-72
2021/01/05 00:52:54;;;;;;;6.82;4.18;;;19.80;36.70;;;;;;5074547;28;20017;-73
2021/01/05 00:55:20;;;;;;;2.17;1.70;;;19.70;36.70;;;;;;5068976;28;20535;-73
2021/01/05 00:58:04;;;;;;;1.52;1.42;;;19.70;36.70;;;;;;5082641;28;20373;-72
2021/01/05 01:00:31;;;;;;;8.90;4.22;;;19.70;36.80;;;;;;5092275;28;20063;-72
2021/01/05 01:02:56;;;;;;;7.05;2.88;;;19.70;36.80;;;;;;5074913;28;20532;-72
2021/01/05 01:05:22;;;;;;;12.60;7.13;;;19.70;36.80;;;;;;5086238;28;20032;-73
2021/01/05 01:07:50;;;;;;;7.15;3.40;;;19.70;36.90;;;;;;5093554;28;20028;-73
2021/01/05 01:10:16;;;;;;;6.70;2.75;;;19.60;36.90;;;;;;5081003;28;20440;-73
2021/01/05 01:12:41;;;;;;;10.13;4.78;;;19.60;36.90;;;;;;5057085;28;20086;-73
2021/01/05 01:15:07;;;;;;;4.95;2.72;;;19.60;37.00;;;;;;5077632;28;20162;-73
2021/01/05 01:17:33;;;;;;;5.72;3.70;;;19.60;37.00;;;;;;5093205;28;20415;-73
2021/01/05 01:19:59;;;;;;;4.38;2.35;;;19.60;37.00;;;;;;5067191;28;20055;-73
2021/01/05 01:22:24;;;;;;;11.38;5.35;;;19.60;37.00;;;;;;5078989;28;20043;-73
2021/01/05 01:24:50;;;;;;;3.78;1.92;;;19.60;37.00;;;;;;5055588;28;20028;-73
2021/01/05 01:27:15;;;;;;;2.17;1.63;;;19.50;37.00;;;;;;5085966;28;20108;-73
2021/01/05 01:29:41;;;;;;;8.35;4.93;;;19.50;37.10;;;;;;5063817;28;20021;-73
2021/01/05 01:32:06;;;;;;;8.63;4.38;;;19.50;37.00;;;;;;5045375;28;20036;-73
2021/01/05 01:34:32;;;;;;;5.45;2.95;;;19.50;37.00;;;;;;5063949;28;20037;-73
2021/01/05 01:37:07;;;;;;;4.88;1.27;;;19.50;37.00;;;;;;5055805;28;20043;-73
2021/01/05 01:39:33;;;;;;;13.57;7.05;;;19.50;37.00;;;;;;5037796;28;20036;-72
2021/01/05 01:41:59;;;;;;;9.20;4.57;;;19.50;37.00;;;;;;5031576;28;20052;-69
2021/01/05 01:44:27;;;;;;;1.85;1.40;;;19.50;36.90;;;;;;5054185;28;20531;-68
2021/01/05 01:46:54;;;;;;;1.95;1.42;;;19.50;36.90;;;;;;5035739;28;20029;-72
2021/01/05 01:49:19;;;;;;;6.30;4.18;;;19.50;36.90;;;;;;5047983;28;20055;-72
2021/01/05 01:51:45;;;;;;;9.15;5.15;;;19.50;36.90;;;;;;5062623;28;20049;-72
2021/01/05 01:54:28;;;;;;;10.43;4.18;;;19.50;36.90;;;;;;5025669;28;20455;-72
2021/01/05 01:57:15;;;;;;;2.20;1.67;;;19.50;36.90;;;;;;5063165;28;20040;-72
2021/01/05 01:59:47;;;;;;;1.67;1.30;;;19.50;36.90;;;;;;5053078;28;20040;-73
2021/01/05 02:02:13;;;;;;;5.70;2.72;;;19.50;36.90;;;;;;5069787;28;20105;-73
2021/01/05 02:05:07;;;;;;;2.47;1.58;;;19.50;36.80;;;;;;5041515;28;20025;-72
2021/01/05 02:08:00;;;;;;;14.75;8.95;;;19.50;36.80;;;;;;5034986;28;20033;-72
2021/01/05 02:10:50;;;;;;;14.00;8.75;;;19.50;37.50;;;;;;5052666;28;20502;-72
2021/01/05 02:13:40;;;;;;;3.60;2.00;;;19.50;36.90;;;;;;5046526;28;20012;-72
2021/01/05 02:16:27;;;;;;;2.35;1.35;;;19.50;36.90;;;;;;5048139;28;20114;-72
2021/01/05 02:18:56;;;;;;;13.35;7.03;;;19.40;36.80;;;;;;5059261;28;20050;-73
2021/01/05 02:21:43;;;;;;;1.65;1.55;;;19.40;36.80;;;;;;5048396;28;20035;-72
2021/01/05 02:24:15;;;;;;;3.72;2.60;;;19.40;36.80;;;;;;5044805;28;20516;-72
2021/01/05 02:26:51;;;;;;;5.88;3.40;;;19.40;36.80;;;;;;5041579;28;20544;-72
2021/01/05 02:29:22;;;;;;;2.50;1.42;;;19.40;36.80;;;;;;5057515;28;20080;-68
2021/01/05 02:32:06;;;;;;;3.38;1.63;;;19.40;37.50;;;;;;5040394;28;20021;-68
2021/01/05 02:35:05;;;;;;;4.97;2.67;;;19.40;36.90;;;;;;5039373;28;20056;-68
2021/01/05 02:37:50;;;;;;;8.50;5.00;;;19.40;37.60;;;;;;5046805;28;20025;-68
2021/01/05 02:40:31;;;;;;;7.07;3.10;;;19.30;36.90;;;;;;5034588;28;20039;-68
2021/01/05 02:43:04;;;;;;;7.65;3.65;;;19.30;37.00;;;;;;5055610;28;20077;-68
2021/01/05 02:45:39;;;;;;;2.13;1.63;;;19.30;37.00;;;;;;5055349;28;20028;-68
2021/01/05 02:48:11;;;;;;;2.77;1.70;;;19.30;37.00;;;;;;5053322;28;20032;-68
2021/01/05 02:50:59;;;;;;;9.52;5.32;;;19.30;37.00;;;;;;5052470;28;20271;-68
2021/01/05 02:53:54;;;;;;;6.35;2.85;;;19.30;37.00;;;;;;5038543;28;20055;-69
2021/01/05 02:56:22;;;;;;;10.70;6.45;;;19.30;37.10;;;;;;5048523;28;20021;-69
2021/01/05 02:59:15;;;;;;;4.63;2.45;;;19.30;37.10;;;;;;5060864;28;20072;-68
2021/01/05 03:01:58;;;;;;;3.63;2.17;;;19.20;37.10;;;;;;5060241;28;20021;-68
2021/01/05 03:04:24;;;;;;;7.60;3.38;;;19.20;37.10;;;;;;5046932;28;20033;-68
2021/01/05 03:06:52;;;;;;;5.53;3.47;;;19.20;37.10;;;;;;5069508;28;20032;-68
2021/01/05 03:10:00;;;;;;;2.88;1.92;;;19.20;37.10;;;;;;5045649;28;20036;-69
2021/01/05 03:13:04;;;;;;;5.45;2.80;;;19.20;37.80;;;;;;5037111;28;20498;-68
2021/01/05 03:15:55;;;;;;;12.52;7.25;;;19.20;37.10;;;;;;5063813;28;20090;-68
2021/01/05 03:18:43;;;;;;;4.28;2.53;;;19.20;37.10;;;;;;5050800;28;20037;-68
2021/01/05 03:21:13;;;;;;;5.57;3.42;;;19.20;37.10;;;;;;5074126;28;20036;-69
2021/01/05 03:23:45;;;;;;;4.05;2.33;;;19.20;37.10;;;;;;5054020;28;20025;-68
2021/01/05 03:26:10;;;;;;;2.58;1.45;;;19.20;37.10;;;;;;5052219;28;20032;-69
2021/01/05 03:28:36;;;;;;;3.00;2.53;;;19.20;37.10;;;;;;5040129;28;20060;-69
2021/01/05 03:31:22;;;;;;;9.38;4.43;;;19.20;37.10;;;;;;5053624;28;20064;-69
2021/01/05 03:33:50;;;;;;;13.43;6.70;;;19.20;37.10;;;;;;5066694;28;20082;-69
2021/01/05 03:36:15;;;;;;;5.75;2.50;;;19.20;37.10;;;;;;5077423;28;20107;-69
2021/01/05 03:38:41;;;;;;;4.90;2.80;;;19.20;37.10;;;;;;5061326;28;20056;-69
2021/01/05 03:41:07;;;;;;;4.82;2.65;;;19.20;37.10;;;;;;5096075;28;20028;-69
2021/01/05 03:43:32;;;;;;;11.98;6.43;;;19.20;37.10;;;;;;5053243;28;20078;-69
2021/01/05 03:45:58;;;;;;;5.82;3.35;;;19.20;37.10;;;;;;5077826;28;20059;-68
2021/01/05 03:48:23;;;;;;;3.83;2.55;;;19.20;37.10;;;;;;5075712;28;20033;-68
2021/01/05 03:50:52;;;;;;;5.63;3.03;;;19.20;37.10;;;;;;5093038;28;20076;-69
2021/01/05 03:53:18;;;;;;;20.02;11.27;;;19.20;37.10;;;;;;5087788;28;20020;-69
2021/01/05 03:55:43;;;;;;;4.10;2.45;;;19.20;37.10;;;;;;5076106;28;20085;-69
2021/01/05 03:58:09;;;;;;;13.20;7.40;;;19.10;37.10;;;;;;5075506;28;20027;-68
2021/01/05 04:00:36;;;;;;;8.52;4.82;;;19.10;37.10;;;;;;5086859;28;20460;-68
2021/01/05 04:03:01;;;;;;;8.85;4.75;;;19.10;37.10;;;;;;5093423;28;20476;-68
2021/01/05 04:05:27;;;;;;;9.05;4.65;;;19.20;37.20;;;;;;5072257;28;20044;-68
2021/01/05 04:07:53;;;;;;;2.97;1.80;;;19.10;37.20;;;;;;5087485;28;20471;-68
2021/01/05 04:10:19;;;;;;;2.60;1.83;;;19.10;37.20;;;;;;5093561;28;20030;-68
2021/01/05 04:12:44;;;;;;;4.40;2.55;;;19.10;37.20;;;;;;5094726;28;20028;-73
2021/01/05 04:15:24;;;;;;;3.92;2.10;;;19.10;37.20;;;;;;5058063;28;20078;-73
2021/01/05 04:17:50;;;;;;;4.28;2.00;;;19.10;37.20;;;;;;5077633;28;20492;-73
2021/01/05 04:20:16;;;;;;;5.00;3.15;;;19.10;37.90;;;;;;5065244;28;20054;-73
2021/01/05 04:22:54;;;;;;;8.95;3.53;;;19.10;37.30;;;;;;5087410;28;20024;-73
2021/01/05 04:25:31;;;;;;;3.90;2.78;;;19.00;37.20;;;;;;5084599;28;20392;-73
2021/01/05 04:27:57;;;;;;;7.30;4.07;;;19.00;37.20;;;;;;5090625;28;20047;-73
2021/01/05 04:30:41;;;;;;;5.80;2.70;;;19.00;37.20;;;;;;5094671;28;20024;-73
2021/01/05 04:33:11;;;;;;;9.57;5.40;;;19.00;37.30;;;;;;5087872;28;20028;-72
2021/01/05 04:35:55;;;;;;;5.47;2.75;;;19.00;37.20;;;;;;5075969;28;20036;-73
2021/01/05 04:38:27;;;;;;;5.45;2.42;;;19.00;37.30;;;;;;5077130;28;20024;-73
2021/01/05 04:40:52;;;;;;;8.50;3.03;;;19.00;37.30;;;;;;5094139;28;20496;-73
2021/01/05 04:43:24;;;;;;;9.20;5.25;;;19.00;37.30;;;;;;5072064;28;20076;-73
2021/01/05 04:46:14;;;;;;;8.00;4.00;;;19.00;37.40;;;;;;5058310;28;20040;-73
2021/01/05 04:48:45;;;;;;;3.75;2.55;;;19.00;37.40;;;;;;5066830;28;20107;-74
2021/01/05 04:51:19;;;;;;;9.35;4.90;;;19.00;37.30;;;;;;5056630;28;20032;-73
2021/01/05 04:54:22;;;;;;;5.72;3.63;;;19.00;37.30;;;;;;5065488;28;20059;-74
2021/01/05 04:57:06;;;;;;;4.72;2.03;;;19.00;37.30;;;;;;5056423;28;20139;-74
2021/01/05 04:59:39;;;;;;;5.07;2.58;;;19.00;37.20;;;;;;5078714;28;20077;-73
2021/01/05 05:02:22;;;;;;;24.98;17.83;;;19.00;37.30;;;;;;5052442;28;20047;-73
2021/01/05 05:05:13;;;;;;;17.75;13.57;;;18.90;38.00;;;;;;5063313;28;20094;-73
2021/01/05 05:08:00;;;;;;;5.00;3.42;;;19.00;37.30;;;;;;5065392;28;20040;-73
2021/01/05 05:10:29;;;;;;;24.17;18.05;;;19.00;37.10;;;;;;5070184;28;20020;-73
2021/01/05 05:13:34;;;;;;;21.08;14.55;;;19.10;37.10;;;;;;5053664;28;20391;-74
2021/01/05 05:16:41;;;;;;;4.75;3.00;;;19.20;36.90;;;;;;4994064;28;20412;-73
2021/01/05 05:19:40;;;;;;;13.77;8.43;;;19.30;36.70;;;;;;4989819;28;20466;-73
2021/01/05 05:22:20;;;;;;;17.17;12.90;;;19.40;36.50;;;;;;4975991;28;20116;-72
2021/01/05 05:24:52;;;;;;;4.15;2.67;;;19.50;36.40;;;;;;4990317;28;20030;-72
2021/01/05 05:27:28;;;;;;;4.80;2.60;;;19.60;36.10;;;;;;4989835;28;20494;-72
2021/01/05 05:29:59;;;;;;;20.05;14.63;;;19.70;35.90;;;;;;4974293;28;20037;-72
2021/01/05 05:36:14;;;;;;;5.18;3.08;;;20.00;35.70;;;;;;4988270;28;20157;-72
2021/01/05 05:39:09;;;;;;;23.65;16.73;;;20.00;35.40;;;;;;4974938;28;20039;-72
2021/01/05 05:42:04;;;;;;;5.65;2.63;;;20.10;35.50;;;;;;4972026;28;20042;-72
2021/01/05 05:44:44;;;;;;;5.53;3.33;;;20.10;35.40;;;;;;4986106;28;20066;-72
2021/01/05 05:47:21;;;;;;;6.50;3.13;;;20.10;35.30;;;;;;4978313;28;20039;-73
2021/01/05 05:49:55;;;;;;;20.40;14.73;;;20.20;35.30;;;;;;4945267;28;20054;-73
2021/01/05 05:52:34;;;;;;;7.00;3.72;;;20.20;35.40;;;;;;5054399;28;20105;-73
2021/01/05 05:55:01;;;;;;;5.80;3.30;;;20.20;35.30;;;;;;5074774;28;20448;-72
2021/01/05 05:57:34;;;;;;;6.00;3.35;;;20.20;35.20;;;;;;5059656;28;20492;-73
2021/01/05 06:00:13;;;;;;;21.58;14.88;;;20.30;35.20;;;;;;5069047;28;20526;-72
2021/01/05 06:02:39;;;;;;;6.85;2.80;;;20.20;35.20;;;;;;5089209;28;20050;-73
2021/01/05 06:05:17;;;;;;;6.70;4.10;;;20.20;35.20;;;;;;5088307;28;20495;-74
2021/01/05 06:07:43;;;;;;;5.63;3.30;;;20.30;35.20;;;;;;5069262;28;20024;-73
2021/01/05 06:10:09;;;;;;;25.30;17.48;;;20.30;35.20;;;;;;5081680;28;20081;-73
2021/01/05 06:12:34;;;;;;;17.98;13.38;;;20.30;35.20;;;;;;5084790;28;20020;-74
2021/01/05 06:15:00;;;;;;;4.50;3.33;;;20.30;35.20;;;;;;5086127;28;20365;-74
2021/01/05 06:17:25;;;;;;;5.68;3.42;;;20.30;35.20;;;;;;5070210;28;20585;-73
2021/01/05 06:19:55;;;;;;;7.47;3.53;;;20.30;35.20;;;;;;5089618;28;20051;-73
2021/01/05 06:22:20;;;;;;;8.52;3.03;;;20.30;35.20;;;;;;5090780;28;20028;-68
2021/01/05 06:24:46;;;;;;;16.90;13.40;;;20.30;35.20;;;;;;5087218;28;20024;-68
2021/01/05 06:27:11;;;;;;;6.22;3.50;;;20.30;35.20;;;;;;5092273;28;20105;-69
2021/01/05 06:29:37;;;;;;;4.30;2.45;;;20.40;35.20;;;;;;5071025;28;20040;-69
2021/01/05 06:32:02;;;;;;;10.82;3.60;;;20.40;35.30;;;;;;5088992;28;20031;-69
2021/01/05 06:34:28;;;;;;;5.63;3.70;;;20.40;35.20;;;;;;5085672;28;20020;-69
2021/01/05 06:36:53;;;;;;;19.52;15.43;;;20.40;35.20;;;;;;5088993;28;20510;-68
2021/01/05 06:39:19;;;;;;;7.32;3.30;;;20.40;35.30;;;;;;5091593;28;20019;-69
2021/01/05 06:41:45;;;;;;;6.78;3.10;;;20.40;35.30;;;;;;5072957;28;20038;-69
2021/01/05 06:44:11;;;;;;;4.88;2.35;;;20.40;35.20;;;;;;5069971;28;20106;-73
2021/01/05 06:46:39;;;;;;;6.25;3.85;;;20.40;35.10;;;;;;5087341;28;20039;-74
2021/01/05 06:49:05;;;;;;;6.05;2.97;;;20.40;35.20;;;;;;5040043;28;20048;-73
2021/01/05 06:51:31;;;;;;;22.27;15.43;;;20.40;35.30;;;;;;5091659;28;20063;-74
2021/01/05 06:53:56;;;;;;;6.20;3.38;;;20.40;35.40;;;;;;5088904;28;20115;-72
2021/01/05 06:56:22;;;;;;;8.73;4.07;;;20.40;35.30;;;;;;5091792;28;20397;-74
2021/01/05 06:58:48;;;;;;;5.43;3.33;;;20.40;35.30;;;;;;5091867;28;20426;-70
2021/01/05 07:01:13;;;;;;;8.38;3.90;;;20.40;35.30;;;;;;5097067;28;20099;-70
2021/01/05 07:03:39;;;;;;;25.80;18.33;;;20.40;35.30;;;;;;5096099;28;20114;-69
2021/01/05 07:06:05;;;;;;;17.00;13.65;;;20.40;35.30;;;;;;5077926;28;20043;-69
2021/01/05 07:08:30;;;;;;;5.60;2.42;;;20.50;35.20;;;;;;5091221;28;20403;-69
2021/01/05 07:10:56;;;;;;;6.03;3.75;;;20.50;35.10;;;;;;5096159;28;20024;-74
2021/01/05 07:13:21;;;;;;;7.20;3.00;;;20.50;35.00;;;;;;5087753;28;20107;-70
2021/01/05 07:15:47;;;;;;;7.28;3.30;;;20.60;35.00;;;;;;5096228;28;20063;-69
2021/01/05 07:18:13;;;;;;;9.82;3.58;;;20.60;34.90;;;;;;5059286;28;20040;-74
2021/01/05 07:20:38;;;;;;;7.50;2.97;;;20.70;34.90;;;;;;5096427;28;20030;-75
2021/01/05 07:23:04;;;;;;;7.95;4.30;;;20.70;34.80;;;;;;5094366;28;20063;-75
2021/01/05 07:25:29;;;;;;;6.00;3.50;;;20.80;34.80;;;;;;5076712;28;20385;-69
2021/01/05 07:27:55;;;;;;;6.18;3.38;;;20.80;34.70;;;;;;5074405;28;20037;-69
2021/01/05 07:30:21;;;;;;;10.85;3.10;;;20.90;34.70;;;;;;5072864;28;20488;-69
2021/01/05 07:32:47;;;;;;;6.95;4.75;;;20.90;34.70;;;;;;5062351;28;20040;-69
2021/01/05 07:35:13;;;;;;;17.15;13.20;;;20.90;34.70;;;;;;5074606;28;20021;-69
2021/01/05 07:37:40;;;;;;;4.50;2.63;;;20.90;34.60;;;;;;5066559;28;21719;-69
2021/01/05 07:40:06;;;;;;;6.82;3.53;;;21.00;34.70;;;;;;5074978;28;20044;-70
2021/01/05 07:42:33;;;;;;;6.03;3.75;;;21.00;34.60;;;;;;5074543;28;20051;-70
2021/01/05 07:45:08;;;;;;;7.97;3.50;;;21.00;34.60;;;;;;5067195;28;20048;-71
2021/01/05 07:47:38;;;;;;;4.55;2.72;;;21.10;34.50;;;;;;5043665;28;20515;-70
2021/01/05 07:50:07;;;;;;;4.97;2.78;;;21.10;34.80;;;;;;5088132;28;20401;-70
2021/01/05 07:52:34;;;;;;;4.65;2.85;;;21.10;34.40;;;;;;5086996;28;20070;-75
2021/01/05 07:55:00;;;;;;;5.75;2.97;;;21.20;34.40;;;;;;5067494;28;20426;-74
2021/01/05 07:57:25;;;;;;;6.60;3.13;;;21.20;34.30;;;;;;5077928;28;20118;-74
2021/01/05 07:59:51;;;;;;;4.85;2.55;;;21.20;34.40;;;;;;5072465;28;20042;-74
2021/01/05 08:02:17;;;;;;;5.43;2.75;;;21.20;34.40;;;;;;5089614;28;20028;-74
2021/01/05 08:04:43;;;;;;;4.43;2.85;;;21.20;34.40;;;;;;5095230;28;20349;-74
2021/01/05 08:07:09;;;;;;;7.35;4.57;;;21.20;34.40;;;;;;5075075;28;20039;-74
2021/01/05 08:09:37;;;;;;;5.80;3.28;;;21.20;34.40;;;;;;5068291;28;20020;-74
2021/01/05 08:12:03;;;;;;;6.70;3.95;;;21.20;34.30;;;;;;5062919;28;20115;-74
2021/01/05 08:14:29;;;;;;;4.60;3.10;;;21.20;34.30;;;;;;5076925;28;20070;-75
2021/01/05 08:16:54;;;;;;;5.32;3.50;;;21.30;34.30;;;;;;5091643;28;20032;-76
2021/01/05 08:19:20;;;;;;;6.15;3.42;;;21.20;34.30;;;;;;5071149;28;20024;-76
2021/01/05 08:21:45;;;;;;;6.72;3.25;;;21.30;34.30;;;;;;5090562;28;20016;-76
2021/01/05 08:24:11;;;;;;;5.93;3.00;;;21.30;34.30;;;;;;5101911;28;20430;-76
2021/01/05 08:26:37;;;;;;;4.18;2.60;;;21.30;34.30;;;;;;5071752;28;20028;-70
2021/01/05 08:29:03;;;;;;;4.85;2.65;;;21.30;33.80;;;;;;5079335;28;20067;-70
2021/01/05 08:31:47;;;;;;;3.80;2.58;;;21.30;34.30;;;;;;5061351;28;20388;-70
2021/01/05 08:34:12;;;;;;;5.70;3.53;;;21.30;34.30;;;;;;5057521;28;20036;-70
2021/01/05 08:36:38;;;;;;;6.20;3.38;;;21.30;34.30;;;;;;5074625;28;20039;-71
2021/01/05 08:39:22;;;;;;;8.90;4.43;;;21.30;34.30;;;;;;5088520;28;20033;-71
2021/01/05 08:41:51;;;;;;;5.13;2.67;;;21.30;34.30;;;;;;5073736;28;20036;-70
2021/01/05 08:44:17;;;;;;;6.13;3.78;;;21.30;34.30;;;;;;5087028;28;20098;-71
2021/01/05 08:46:43;;;;;;;6.50;3.13;;;21.20;34.30;;;;;;5087140;28;20024;-70
2021/01/05 08:49:08;;;;;;;5.78;3.08;;;21.20;34.40;;;;;;5092936;28;20032;-70
2021/01/05 08:51:34;;;;;;;6.70;2.97;;;21.20;34.40;;;;;;5094421;28;20028;-71
2021/01/05 08:53:59;;;;;;;7.10;3.45;;;21.30;34.40;;;;;;5094810;28;20039;-70
2021/01/05 08:56:26;;;;;;;6.13;3.25;;;21.20;34.40;;;;;;5069318;28;20033;-70
2021/01/05 08:59:00;;;;;;;4.97;2.42;;;21.20;34.40;;;;;;5065952;28;20042;-71
2021/01/05 09:01:26;;;;;;;6.07;3.60;;;21.20;34.50;;;;;;5084434;28;20032;-71
2021/01/05 09:03:52;;;;;;;5.00;3.47;;;21.20;34.50;;;;;;5093929;28;20038;-70
2021/01/05 09:06:22;;;;;;;3.25;1.98;;;21.20;34.50;;;;;;5078036;28;20040;-68
2021/01/05 09:08:48;;;;;;;8.48;4.22;;;21.20;34.50;;;;;;5079716;28;20028;-74
2021/01/05 09:11:22;;;;;;;7.55;2.75;;;21.20;34.60;;;;;;5096347;28;20048;-75
2021/01/05 09:13:47;;;;;;;7.18;4.20;;;21.20;34.50;;;;;;5100279;28;20399;-74
2021/01/05 09:16:23;;;;;;;4.90;3.25;;;21.10;34.60;;;;;;5084396;28;20015;-75
2021/01/05 09:18:49;;;;;;;6.68;2.63;;;21.10;34.60;;;;;;5098015;28;20117;-75
2021/01/05 09:21:14;;;;;;;6.50;3.58;;;21.10;34.60;;;;;;5101735;28;20036;-73
2021/01/05 09:23:40;;;;;;;8.18;4.07;;;21.10;34.60;;;;;;5101253;28;20054;-73
2021/01/05 09:26:08;;;;;;;4.30;2.70;;;21.10;34.70;;;;;;5101341;28;20035;-74
2021/01/05 09:28:34;;;;;;;8.85;4.00;;;21.10;34.70;;;;;;5106485;28;20056;-74
2021/01/05 09:30:59;;;;;;;5.60;3.30;;;21.10;34.70;;;;;;5074647;28;20024;-74
2021/01/05 09:33:35;;;;;;;8.40;3.92;;;21.10;34.80;;;;;;5099566;28;20069;-75
2021/01/05 09:36:00;;;;;;;5.28;2.65;;;21.10;34.70;;;;;;5083399;28;20028;-75
2021/01/05 09:38:26;;;;;;;5.95;3.55;;;21.10;34.70;;;;;;5079106;28;20035;-75
2021/01/05 09:40:52;;;;;;;5.20;3.03;;;21.10;34.70;;;;;;5089203;28;20024;-75
2021/01/05 09:43:18;;;;;;;6.78;4.30;;;21.10;34.70;;;;;;5076347;28;20034;-75
2021/01/05 09:45:45;;;;;;;6.70;3.55;;;21.10;34.70;;;;;;5097463;28;20027;-74
2021/01/05 09:48:12;;;;;;;8.15;4.57;;;21.10;34.70;;;;;;5064745;28;20040;-73
2021/01/05 09:50:39;;;;;;;5.25;2.88;;;21.20;34.70;;;;;;5084497;28;20024;-74
2021/01/05 09:53:04;;;;;;;4.63;2.40;;;21.20;34.60;;;;;;5071968;28;20039;-74
2021/01/05 09:55:31;;;;;;;6.63;3.35;;;21.20;34.60;;;;;;5084916;28;20024;-74
2021/01/05 09:57:57;;;;;;;7.68;3.60;;;21.20;34.60;;;;;;5076503;28;20123;-74
2021/01/05 10:00:23;;;;;;;7.70;4.28;;;21.10;34.60;;;;;;5100620;28;20035;-70
2021/01/05 10:03:08;;;;;;;7.13;3.50;;;21.20;34.60;;;;;;5077507;28;20072;-71
2021/01/05 10:05:34;;;;;;;7.10;2.72;;;21.10;34.60;;;;;;5082165;28;20100;-70
2021/01/05 10:07:59;;;;;;;7.03;2.88;;;21.10;34.60;;;;;;5063154;28;20024;-69
2021/01/05 10:10:26;;;;;;;6.72;3.95;;;21.10;34.60;;;;;;5097986;28;20020;-70
2021/01/05 10:12:52;;;;;;;3.83;2.60;;;21.20;34.60;;;;;;5097970;28;20387;-70
2021/01/05 10:15:19;;;;;;;4.93;3.22;;;21.10;34.50;;;;;;5098637;28;20031;-69
2021/01/05 10:17:44;;;;;;;5.80;3.40;;;21.10;34.60;;;;;;5078670;28;20491;-68
2021/01/05 10:20:11;;;;;;;5.85;3.05;;;21.10;34.60;;;;;;5078276;28;20043;-69
2021/01/05 10:22:37;;;;;;;7.35;2.95;;;21.10;34.60;;;;;;5094096;28;20035;-69
2021/01/05 10:25:04;;;;;;;5.15;2.50;;;21.10;34.60;;;;;;5071776;28;20044;-70
2021/01/05 10:27:29;;;;;;;8.13;4.03;;;21.10;34.60;;;;;;5068153;28;20038;-69
2021/01/05 10:29:55;;;;;;;8.55;3.45;;;21.10;34.70;;;;;;5077739;28;20052;-70
2021/01/05 10:32:22;;;;;;;9.02;4.03;;;21.20;34.70;;;;;;5075458;28;20035;-69
2021/01/05 10:34:47;;;;;;;7.97;3.75;;;21.10;34.70;;;;;;5086068;28;20028;-70
2021/01/05 10:37:13;;;;;;;8.07;4.25;;;21.10;34.70;;;;;;5084400;28;20025;-68
2021/01/05 10:39:38;;;;;;;7.45;4.15;;;21.10;34.70;;;;;;5083172;28;20418;-70
2021/01/05 10:42:04;;;;;;;9.63;5.05;;;21.10;34.70;;;;;;5091268;28;20032;-69
2021/01/05 10:44:30;;;;;;;6.20;3.35;;;21.10;34.70;;;;;;5069206;28;20031;-69
2021/01/05 10:46:59;;;;;;;8.93;4.15;;;21.10;34.70;;;;;;5091987;28;20020;-68
2021/01/05 10:49:28;;;;;;;8.85;3.65;;;21.10;34.70;;;;;;5056532;28;20039;-67
2021/01/05 10:51:56;;;;;;;10.63;4.47;;;21.10;34.70;;;;;;5092916;28;20024;-68
2021/01/05 10:54:22;;;;;;;9.13;4.53;;;21.10;34.70;;;;;;5092451;28;20656;-68
2021/01/05 10:56:55;;;;;;;10.38;4.72;;;21.10;34.80;;;;;;5087340;28;20024;-69
2021/01/05 10:59:20;;;;;;;6.95;3.42;;;21.10;34.80;;;;;;5074623;28;20059;-68
2021/01/05 11:01:46;;;;;;;8.10;4.20;;;21.10;34.80;;;;;;5070627;28;20028;-68
2021/01/05 11:04:12;;;;;;;8.93;4.15;;;21.10;34.80;;;;;;5089750;28;20024;-68
2021/01/05 11:06:37;;;;;;;9.07;4.28;;;21.10;34.80;;;;;;5091725;28;20499;-69
2021/01/05 11:09:03;;;;;;;7.82;4.72;;;21.10;34.80;;;;;;5074404;28;20506;-72
2021/01/05 11:11:29;;;;;;;9.85;5.20;;;21.10;34.80;;;;;;5092109;28;20027;-73
2021/01/05 11:13:55;;;;;;;12.80;5.72;;;21.10;34.80;;;;;;5094535;28;20025;-69
2021/01/05 11:16:20;;;;;;;8.63;5.30;;;21.10;34.80;;;;;;5058857;28;20020;-70
2021/01/05 11:18:52;;;;;;;12.88;5.50;;;21.10;34.80;;;;;;5089741;28;20450;-69
2021/01/05 11:21:17;;;;;;;10.75;5.07;;;21.10;34.70;;;;;;5076122;28;20496;-68
2021/01/05 11:23:43;;;;;;;9.63;4.43;;;21.10;34.70;;;;;;5076232;28;20024;-69
2021/01/05 11:26:09;;;;;;;11.18;6.53;;;21.10;34.70;;;;;;5091956;28;20446;-70
2021/01/05 11:28:35;;;;;;;8.57;4.30;;;21.20;34.70;;;;;;5074623;28;20056;-70
2021/01/05 11:31:01;;;;;;;7.53;3.60;;;21.10;34.70;;;;;;5094156;28;20021;-70
2021/01/05 11:33:47;;;;;;;9.38;4.65;;;21.20;34.80;;;;;;5056143;28;20055;-72
2021/01/05 11:36:24;;;;;;;10.90;5.80;;;21.20;34.80;;;;;;5094157;28;20024;-70
2021/01/05 11:38:50;;;;;;;8.45;3.67;;;21.20;34.80;;;;;;5074124;28;20040;-71
2021/01/05 11:41:32;;;;;;;7.30;3.28;;;21.20;34.70;;;;;;5089217;28;20024;-70
2021/01/05 11:43:58;;;;;;;8.38;4.43;;;21.20;34.70;;;;;;5089788;28;20070;-70
2021/01/05 11:46:24;;;;;;;7.95;3.90;;;21.30;34.80;;;;;;5069988;28;20037;-69
2021/01/05 11:48:50;;;;;;;6.20;3.95;;;21.30;34.80;;;;;;5080181;28;20028;-71
2021/01/05 11:51:29;;;;;;;5.90;3.17;;;21.30;34.70;;;;;;5056971;28;20113;-70
2021/01/05 11:53:55;;;;;;;7.88;4.25;;;21.30;34.70;;;;;;5086202;28;20044;-70
2021/01/05 11:56:25;;;;;;;11.80;5.38;;;21.30;34.70;;;;;;5101225;28;20487;-71
2021/01/05 11:58:51;;;;;;;9.60;5.07;;;21.30;34.80;;;;;;5080080;28;20024;-69
2021/01/05 12:01:17;;;;;;;5.35;3.28;;;21.40;34.80;;;;;;5075743;28;20053;-70
2021/01/05 12:03:52;;;;;;;10.35;4.70;;;21.30;34.70;;;;;;5093361;28;20047;-69
2021/01/05 12:06:22;;;;;;;7.25;3.97;;;21.30;34.80;;;;;;5055351;28;20047;-74
2021/01/05 12:08:48;;;;;;;11.18;5.45;;;21.30;34.80;;;;;;5080327;28;20031;-74
2021/01/05 12:14:35;;;;;;;9.43;5.88;;;21.40;34.80;;;;;;5095783;28;20498;-75
2021/01/05 12:17:02;;;;;;;11.98;6.05;;;21.30;34.70;;;;;;5090472;28;20024;-75
2021/01/05 12:19:30;;;;;;;9.85;4.40;;;21.30;34.70;;;;;;5042126;28;20035;-74
2021/01/05 12:21:58;;;;;;;11.80;6.00;;;21.30;34.70;;;;;;5053766;28;20403;-74
2021/01/05 12:24:26;;;;;;;10.55;4.25;;;21.30;35.40;;;;;;5092366;28;20483;-75
2021/01/05 12:26:59;;;;;;;5.85;3.83;;;21.30;34.80;;;;;;5081426;28;20016;-75
2021/01/05 12:29:26;;;;;;;10.32;6.10;;;21.30;34.80;;;;;;5071252;28;20040;-75
2021/01/05 12:31:53;;;;;;;7.95;4.05;;;21.30;34.80;;;;;;5075258;28;20029;-74
2021/01/05 12:34:21;;;;;;;10.43;4.78;;;21.30;34.80;;;;;;5076755;28;20023;-75
2021/01/05 12:36:53;;;;;;;10.75;4.65;;;21.30;34.80;;;;;;5096794;28;20024;-75
2021/01/05 12:39:23;;;;;;;9.73;4.93;;;21.30;34.70;;;;;;5091941;28;20491;-75
2021/01/05 12:41:49;;;;;;;12.68;5.57;;;21.40;34.80;;;;;;5060176;28;20094;-75
2021/01/05 12:44:16;;;;;;;10.25;5.03;;;21.40;34.80;;;;;;5094124;28;20024;-75
2021/01/05 12:46:45;;;;;;;9.98;4.53;;;21.30;34.70;;;;;;5085209;28;20024;-75
2021/01/05 12:49:11;;;;;;;10.90;5.63;;;21.30;34.70;;;;;;5087857;28;20103;-74
2021/01/05 12:51:38;;;;;;;11.68;4.50;;;21.40;34.70;;;;;;5096424;28;20032;-76
2021/01/05 12:54:05;;;;;;;8.45;4.57;;;21.30;34.60;;;;;;5055555;28;20036;-75
2021/01/05 12:56:31;;;;;;;10.27;4.43;;;21.30;34.70;;;;;;5090368;28;20028;-75
2021/01/05 12:58:57;;;;;;;8.85;4.53;;;21.30;34.70;;;;;;5095885;28;20086;-75
2021/01/05 13:01:23;;;;;;;14.23;5.85;;;21.40;34.70;;;;;;5078678;28;20408;-75
2021/01/05 13:03:50;;;;;;;10.30;5.60;;;21.40;34.60;;;;;;5076117;28;20036;-70
2021/01/05 13:06:16;;;;;;;7.75;4.60;;;21.30;34.60;;;;;;5093694;28;20103;-71
2021/01/05 13:08:42;;;;;;;13.20;4.55;;;21.30;34.60;;;;;;5056112;28;20107;-71